Ayer, MA (01432)

5:14 PM EST on February 19, 2017 (GMT -0500)
Washington-Highland | | Change Station

Elev 312 ft 42.56 °N, 71.59 °W | Updated 28 seconds ago

Clear
Clear
54.9 °F
Feels Like 54.9 °F
N
6.8
Wind Variable Wind from SSE

Today
High -- | Low -- °F
--% Chance of Precip.
Yesterday
High -- | Low -- °F
Precip. -- in
Pressure 29.77 in
Visibility 10.0 miles
Clouds Clear
Dew Point 31 °F
Humidity 40%
Rainfall 0.00 in
Snow Depth Not available.
6:37 AM 5:23 PM
Last Quarter, 40% visible
METAR KFIT 192152Z AUTO 28010KT 10SM CLR 12/M01 A2976 RMK AO2 SLP081 T01221011
Pressure 29.77 in
Visibility 10.0 miles
Clouds Clear
Dew Point 31 °F
Humidity 40%
Rainfall 0.00 in
Snow Depth Not available.
6:37 AM 5:23 PM
Last Quarter, 40% visible
METAR KFIT 192152Z AUTO 28010KT 10SM CLR 12/M01 A2976 RMK AO2 SLP081 T01221011

Get Your Daily Forecast Email!

Thanks for signing up!

Be on the lookout for a verification email in your inbox.

You'll start receiving the daily forecast at 8 AM.

×

10-Day Weather Forecast

Almanac

Astronomy

Feb. 19, 2017 Rise Set
Actual Time
Civil Twilight
Nautical Twilight
Astronomical Twilight
Moon
Length of Visible Light
Length of Day
Tomorrow will be .
, % of the Moon is Illuminated

Today's Extremes

State Highs State Lows

Community

WunderPhotos

Upload Photos

1,962,540 photos uploaded!

WunderBlog® & News

Nearby

Air Quality

  Air Quality AQ Index Pollutant
Not available.

Snow Depth

Station Depth Elevation

Earthquake Activity

City Distance Mag. Time & Date
Minimum magnitude displayed is 2.5.

Coastal Water Temperatures

Place Temperature

Stations

Nearby Weather Stations

Station Location Temp. Windchill Dew Point Humidity Wind Precip. Elev Updated Type
                   

Watches & Warnings

There are currently no watches in effect.